sensor_id;sensor_type;location;lat;lon;timestamp;pressure;altitude;pressure_sealevel;temperature;humidity
62617;BME280;62539;51.190;6.808;2023-05-13T00:00:36;101575.38;;;20.69;55.51
62617;BME280;62539;51.190;6.808;2023-05-13T00:03:02;101580.66;;;20.69;55.60
62617;BME280;62539;51.190;6.808;2023-05-13T00:05:27;101583.28;;;20.69;55.54
62617;BME280;62539;51.190;6.808;2023-05-13T00:07:53;101583.34;;;20.67;55.68
62617;BME280;62539;51.190;6.808;2023-05-13T00:10:19;101580.72;;;20.67;55.52
62617;BME280;62539;51.190;6.808;2023-05-13T00:12:44;101577.19;;;20.67;55.77
62617;BME280;62539;51.190;6.808;2023-05-13T00:15:10;101575.47;;;20.66;55.41
62617;BME280;62539;51.190;6.808;2023-05-13T00:17:36;101579.00;;;20.65;55.45
62617;BME280;62539;51.190;6.808;2023-05-13T00:20:01;101580.81;;;20.64;55.50
62617;BME280;62539;51.190;6.808;2023-05-13T00:22:26;101582.56;;;20.64;55.40
62617;BME280;62539;51.190;6.808;2023-05-13T00:24:52;101576.44;;;20.63;55.45
62617;BME280;62539;51.190;6.808;2023-05-13T00:27:17;101580.84;;;20.63;55.67
62617;BME280;62539;51.190;6.808;2023-05-13T00:29:43;101584.38;;;20.62;55.85
62617;BME280;62539;51.190;6.808;2023-05-13T00:32:08;101585.28;;;20.61;55.66
62617;BME280;62539;51.190;6.808;2023-05-13T00:34:33;101587.94;;;20.61;55.92
62617;BME280;62539;51.190;6.808;2023-05-13T00:36:59;101587.06;;;20.60;55.74
62617;BME280;62539;51.190;6.808;2023-05-13T00:39:25;101586.19;;;20.60;55.71
62617;BME280;62539;51.190;6.808;2023-05-13T00:41:51;101580.09;;;20.58;55.90
62617;BME280;62539;51.190;6.808;2023-05-13T00:44:16;101578.34;;;20.58;55.97
62617;BME280;62539;51.190;6.808;2023-05-13T00:46:42;101581.03;;;20.56;55.90
62617;BME280;62539;51.190;6.808;2023-05-13T00:49:08;101582.75;;;20.58;55.92
62617;BME280;62539;51.190;6.808;2023-05-13T00:51:33;101581.91;;;20.57;55.99
62617;BME280;62539;51.190;6.808;2023-05-13T00:53:58;101591.56;;;20.56;55.91
62617;BME280;62539;51.190;6.808;2023-05-13T00:56:25;101587.19;;;20.55;56.14
62617;BME280;62539;51.190;6.808;2023-05-13T00:58:51;101589.84;;;20.55;55.85
62617;BME280;62539;51.190;6.808;2023-05-13T01:04:47;101588.09;;;20.54;56.03
62617;BME280;62539;51.190;6.808;2023-05-13T01:07:37;101589.94;;;20.52;56.09
62617;BME280;62539;51.190;6.808;2023-05-13T01:10:46;101586.47;;;20.50;55.89
62617;BME280;62539;51.190;6.808;2023-05-13T01:13:22;101586.47;;;20.50;56.11
62617;BME280;62539;51.190;6.808;2023-05-13T01:15:56;101587.38;;;20.49;56.04
62617;BME280;62539;51.190;6.808;2023-05-13T01:18:32;101583.03;;;20.48;56.22
62617;BME280;62539;51.190;6.808;2023-05-13T01:21:02;101589.16;;;20.49;55.98
62617;BME280;62539;51.190;6.808;2023-05-13T01:23:29;101583.03;;;20.48;56.18
62617;BME280;62539;51.190;6.808;2023-05-13T01:25:55;101585.66;;;20.48;55.98
62617;BME280;62539;51.190;6.808;2023-05-13T01:28:20;101583.94;;;20.47;56.05
62617;BME280;62539;51.190;6.808;2023-05-13T01:30:46;101578.66;;;20.47;56.11
62617;BME280;62539;51.190;6.808;2023-05-13T01:33:14;101587.44;;;20.48;56.23
62617;BME280;62539;51.190;6.808;2023-05-13T01:35:42;101581.28;;;20.47;56.00
62617;BME280;62539;51.190;6.808;2023-05-13T01:38:09;101579.56;;;20.46;56.16
62617;BME280;62539;51.190;6.808;2023-05-13T01:40:35;101586.56;;;20.47;56.20
62617;BME280;62539;51.190;6.808;2023-05-13T01:43:01;101590.09;;;20.46;56.27
62617;BME280;62539;51.190;6.808;2023-05-13T01:45:28;101588.34;;;20.47;56.32
62617;BME280;62539;51.190;6.808;2023-05-13T01:47:54;101584.00;;;20.46;55.98
62617;BME280;62539;51.190;6.808;2023-05-13T01:50:20;101588.38;;;20.45;56.29
62617;BME280;62539;51.190;6.808;2023-05-13T01:52:45;101592.81;;;20.45;56.09
62617;BME280;62539;51.190;6.808;2023-05-13T01:55:11;101588.38;;;20.45;56.05
62617;BME280;62539;51.190;6.808;2023-05-13T01:57:36;101586.66;;;20.44;56.31
62617;BME280;62539;51.190;6.808;2023-05-13T02:00:02;101586.66;;;20.44;56.32
62617;BME280;62539;51.190;6.808;2023-05-13T02:02:29;101582.28;;;20.43;56.33
62617;BME280;62539;51.190;6.808;2023-05-13T02:04:54;101584.94;;;20.43;56.32
62617;BME280;62539;51.190;6.808;2023-05-13T02:07:20;101584.03;;;20.44;56.04
62617;BME280;62539;51.190;6.808;2023-05-13T02:09:45;101586.72;;;20.42;56.11
62617;BME280;62539;51.190;6.808;2023-05-13T02:12:10;101584.09;;;20.42;56.17
62617;BME280;62539;51.190;6.808;2023-05-13T02:14:36;101582.34;;;20.41;56.34
62617;BME280;62539;51.190;6.808;2023-05-13T02:17:03;101582.34;;;20.41;56.14
62617;BME280;62539;51.190;6.808;2023-05-13T02:19:28;101584.13;;;20.41;56.06
62617;BME280;62539;51.190;6.808;2023-05-13T02:21:54;101582.34;;;20.41;56.16
62617;BME280;62539;51.190;6.808;2023-05-13T02:24:19;101588.47;;;20.42;56.55
62617;BME280;62539;51.190;6.808;2023-05-13T02:26:45;101581.47;;;20.41;56.43
62617;BME280;62539;51.190;6.808;2023-05-13T02:29:10;101583.25;;;20.40;56.35
62617;BME280;62539;51.190;6.808;2023-05-13T02:31:36;101582.34;;;20.41;56.57
62617;BME280;62539;51.190;6.808;2023-05-13T02:34:02;101582.38;;;20.40;56.45
62617;BME280;62539;51.190;6.808;2023-05-13T02:36:27;101585.03;;;20.40;56.40
62617;BME280;62539;51.190;6.808;2023-05-13T02:38:53;101585.03;;;20.40;56.34
62617;BME280;62539;51.190;6.808;2023-05-13T02:41:18;101578.03;;;20.39;56.12
62617;BME280;62539;51.190;6.808;2023-05-13T02:43:43;101585.03;;;20.40;56.53
62617;BME280;62539;51.190;6.808;2023-05-13T02:46:09;101577.19;;;20.38;56.23
62617;BME280;62539;51.190;6.808;2023-05-13T02:48:35;101584.19;;;20.38;56.38
62617;BME280;62539;51.190;6.808;2023-05-13T02:51:00;101582.47;;;20.37;56.50
62617;BME280;62539;51.190;6.808;2023-05-13T02:53:25;101579.84;;;20.37;56.23
62617;BME280;62539;51.190;6.808;2023-05-13T02:55:51;101578.13;;;20.36;56.14
62617;BME280;62539;51.190;6.808;2023-05-13T02:58:18;101582.47;;;20.37;56.20
62617;BME280;62539;51.190;6.808;2023-05-13T03:00:43;101574.56;;;20.37;56.24
62617;BME280;62539;51.190;6.808;2023-05-13T03:03:09;101578.13;;;20.36;56.24
62617;BME280;62539;51.190;6.808;2023-05-13T03:05:34;101574.63;;;20.35;56.22
62617;BME280;62539;51.190;6.808;2023-05-13T03:08:00;101572.03;;;20.34;56.27
62617;BME280;62539;51.190;6.808;2023-05-13T03:10:25;101576.38;;;20.35;56.34
62617;BME280;62539;51.190;6.808;2023-05-13T03:12:50;101579.94;;;20.34;56.34
62617;BME280;62539;51.190;6.808;2023-05-13T03:15:16;101582.56;;;20.34;56.24
62617;BME280;62539;51.190;6.808;2023-05-13T03:17:41;101578.19;;;20.33;56.43
62617;BME280;62539;51.190;6.808;2023-05-13T03:20:09;101577.34;;;20.32;56.48
62617;BME280;62539;51.190;6.808;2023-05-13T03:22:35;101581.75;;;20.32;56.25
62617;BME280;62539;51.190;6.808;2023-05-13T03:25:04;101589.66;;;20.32;56.22
62617;BME280;62539;51.190;6.808;2023-05-13T03:27:30;101578.25;;;20.31;56.33
62617;BME280;62539;51.190;6.808;2023-05-13T03:29:55;101573.91;;;20.30;56.43
62617;BME280;62539;51.190;6.808;2023-05-13T03:32:21;101577.44;;;20.29;56.36
62617;BME280;62539;51.190;6.808;2023-05-13T03:34:49;101587.06;;;20.30;56.26
62617;BME280;62539;51.190;6.808;2023-05-13T03:37:15;101579.19;;;20.29;56.46
62617;BME280;62539;51.190;6.808;2023-05-13T03:39:41;101585.38;;;20.27;56.23
62617;BME280;62539;51.190;6.808;2023-05-13T03:42:06;101588.00;;;20.27;56.44
62617;BME280;62539;51.190;6.808;2023-05-13T03:44:32;101585.38;;;20.27;56.35
62617;BME280;62539;51.190;6.808;2023-05-13T03:46:57;101586.28;;;20.26;56.29
62617;BME280;62539;51.190;6.808;2023-05-13T03:49:22;101584.56;;;20.25;56.18
62617;BME280;62539;51.190;6.808;2023-05-13T03:51:48;101585.47;;;20.24;56.39
62617;BME280;62539;51.190;6.808;2023-05-13T03:54:13;101588.09;;;20.24;56.48
62617;BME280;62539;51.190;6.808;2023-05-13T03:56:39;101590.72;;;20.24;56.47
62617;BME280;62539;51.190;6.808;2023-05-13T03:59:04;101589.00;;;20.23;56.50
62617;BME280;62539;51.190;6.808;2023-05-13T04:01:29;101587.28;;;20.22;56.41
62617;BME280;62539;51.190;6.808;2023-05-13T04:03:55;101587.28;;;20.22;56.24
62617;BME280;62539;51.190;6.808;2023-05-13T04:06:20;101592.56;;;20.22;56.39
62617;BME280;62539;51.190;6.808;2023-05-13T04:08:45;101597.81;;;20.22;56.56
62617;BME280;62539;51.190;6.808;2023-05-13T04:11:12;101598.72;;;20.21;56.44
62617;BME280;62539;51.190;6.808;2023-05-13T04:13:38;101602.25;;;20.22;56.19
62617;BME280;62539;51.190;6.808;2023-05-13T04:16:04;101597.00;;;20.20;56.22
62617;BME280;62539;51.190;6.808;2023-05-13T04:18:30;101599.63;;;20.20;56.41
62617;BME280;62539;51.190;6.808;2023-05-13T04:20:55;101602.28;;;20.20;56.43
62617;BME280;62539;51.190;6.808;2023-05-13T04:23:21;101598.78;;;20.20;56.39
62617;BME280;62539;51.190;6.808;2023-05-13T04:25:52;101602.31;;;20.19;56.44
62617;BME280;62539;51.190;6.808;2023-05-13T04:28:18;101608.44;;;20.19;56.31
62617;BME280;62539;51.190;6.808;2023-05-13T04:30:44;101606.72;;;20.18;56.47
62617;BME280;62539;51.190;6.808;2023-05-13T04:33:10;101603.19;;;20.19;56.39
62617;BME280;62539;51.190;6.808;2023-05-13T04:35:35;101608.44;;;20.19;56.47
62617;BME280;62539;51.190;6.808;2023-05-13T04:38:01;101615.44;;;20.20;56.33
62617;BME280;62539;51.190;6.808;2023-05-13T04:40:26;101614.59;;;20.20;56.23
62617;BME280;62539;51.190;6.808;2023-05-13T04:42:51;101612.88;;;20.19;56.36
62617;BME280;62539;51.190;6.808;2023-05-13T04:45:19;101611.97;;;20.20;56.57
62617;BME280;62539;51.190;6.808;2023-05-13T04:47:45;101615.44;;;20.20;56.49
62617;BME280;62539;51.190;6.808;2023-05-13T04:50:11;101619.88;;;20.20;56.39
62617;BME280;62539;51.190;6.808;2023-05-13T04:52:36;101622.44;;;20.21;56.35
62617;BME280;62539;51.190;6.808;2023-05-13T04:55:02;101620.72;;;20.20;56.37
62617;BME280;62539;51.190;6.808;2023-05-13T04:57:27;101620.69;;;20.22;56.44
62617;BME280;62539;51.190;6.808;2023-05-13T04:59:52;101624.16;;;20.22;56.43
62617;BME280;62539;51.190;6.808;2023-05-13T05:02:18;101622.41;;;20.23;56.55
62617;BME280;62539;51.190;6.808;2023-05-13T05:04:43;101621.50;;;20.24;56.40
62617;BME280;62539;51.190;6.808;2023-05-13T05:07:09;101621.50;;;20.24;56.53
62617;BME280;62539;51.190;6.808;2023-05-13T05:09:34;101625.91;;;20.23;56.79
62617;BME280;62539;51.190;6.808;2023-05-13T05:11:59;101630.25;;;20.24;56.75
62617;BME280;62539;51.190;6.808;2023-05-13T05:14:25;101633.72;;;20.26;56.57
62617;BME280;62539;51.190;6.808;2023-05-13T05:16:50;101635.50;;;20.26;56.48
62617;BME280;62539;51.190;6.808;2023-05-13T05:19:16;101627.59;;;20.26;56.79
62617;BME280;62539;51.190;6.808;2023-05-13T05:21:41;101631.06;;;20.26;56.71
62617;BME280;62539;51.190;6.808;2023-05-13T05:24:07;101630.16;;;20.27;56.59
62617;BME280;62539;51.190;6.808;2023-05-13T05:26:32;101627.53;;;20.27;56.77
62617;BME280;62539;51.190;6.808;2023-05-13T05:28:58;101635.41;;;20.29;56.53
62617;BME280;62539;51.190;6.808;2023-05-13T05:31:23;101636.25;;;20.30;56.86
62617;BME280;62539;51.190;6.808;2023-05-13T05:33:51;101638.00;;;20.31;56.80
62617;BME280;62539;51.190;6.808;2023-05-13T05:36:16;101629.19;;;20.32;56.71
62617;BME280;62539;51.190;6.808;2023-05-13T05:38:41;101629.19;;;20.32;56.71
62617;BME280;62539;51.190;6.808;2023-05-13T05:41:07;101628.25;;;20.34;56.56
62617;BME280;62539;51.190;6.808;2023-05-13T05:43:32;101623.81;;;20.35;56.82
62617;BME280;62539;51.190;6.808;2023-05-13T05:45:58;101625.53;;;20.36;56.80
62617;BME280;62539;51.190;6.808;2023-05-13T05:48:23;101628.16;;;20.37;56.75
62617;BME280;62539;51.190;6.808;2023-05-13T05:50:48;101625.53;;;20.37;56.45
62617;BME280;62539;51.190;6.808;2023-05-13T05:53:14;101628.09;;;20.39;56.67
62617;BME280;62539;51.190;6.808;2023-05-13T05:55:39;101627.19;;;20.40;56.65
62617;BME280;62539;51.190;6.808;2023-05-13T05:58:05;101632.47;;;20.40;56.42
62617;BME280;62539;51.190;6.808;2023-05-13T06:00:33;101630.63;;;20.42;56.51
62617;BME280;62539;51.190;6.808;2023-05-13T06:02:58;101637.63;;;20.43;56.60
62617;BME280;62539;51.190;6.808;2023-05-13T06:05:24;101637.63;;;20.43;56.68
62617;BME280;62539;51.190;6.808;2023-05-13T06:07:49;101642.88;;;20.45;56.38
62617;BME280;62539;51.190;6.808;2023-05-13T06:10:15;101649.91;;;20.44;56.42
62617;BME280;62539;51.190;6.808;2023-05-13T06:12:40;101662.19;;;20.45;56.30
62617;BME280;62539;51.190;6.808;2023-05-13T06:15:07;101656.91;;;20.45;56.67
62617;BME280;62539;51.190;6.808;2023-05-13T06:17:35;101655.97;;;20.48;56.54
62617;BME280;62539;51.190;6.808;2023-05-13T06:20:01;101655.09;;;20.47;56.31
62617;BME280;62539;51.190;6.808;2023-05-13T06:22:28;101659.47;;;20.48;56.58
62617;BME280;62539;51.190;6.808;2023-05-13T06:24:54;101671.72;;;20.49;56.44
62617;BME280;62539;51.190;6.808;2023-05-13T06:27:19;101667.28;;;20.51;56.62
62617;BME280;62539;51.190;6.808;2023-05-13T06:29:44;101658.47;;;20.52;56.48
62617;BME280;62539;51.190;6.808;2023-05-13T06:32:10;101660.19;;;20.53;56.33
62617;BME280;62539;51.190;6.808;2023-05-13T06:34:35;101653.97;;;20.56;56.24
62617;BME280;62539;51.190;6.808;2023-05-13T06:37:03;101654.81;;;20.56;56.24
62617;BME280;62539;51.190;6.808;2023-05-13T06:39:29;101654.75;;;20.60;56.17
62617;BME280;62539;51.190;6.808;2023-05-13T06:41:54;101661.75;;;20.61;56.15
62617;BME280;62539;51.190;6.808;2023-05-13T06:44:20;101656.44;;;20.62;56.37
62617;BME280;62539;51.190;6.808;2023-05-13T06:46:45;101666.06;;;20.63;56.36
62617;BME280;62539;51.190;6.808;2023-05-13T06:49:11;101675.66;;;20.66;56.09
62617;BME280;62539;51.190;6.808;2023-05-13T06:51:36;101672.09;;;20.67;55.97
62617;BME280;62539;51.190;6.808;2023-05-13T06:54:01;101678.19;;;20.69;55.97
62617;BME280;62539;51.190;6.808;2023-05-13T06:56:28;101680.75;;;20.72;56.00
62617;BME280;62539;51.190;6.808;2023-05-13T06:58:54;101681.56;;;20.74;55.86
62617;BME280;62539;51.190;6.808;2023-05-13T07:01:19;101673.63;;;20.76;56.06
62617;BME280;62539;51.190;6.808;2023-05-13T07:03:45;101674.47;;;20.78;56.12
62617;BME280;62539;51.190;6.808;2023-05-13T07:06:10;101677.03;;;20.81;56.00
62617;BME280;62539;51.190;6.808;2023-05-13T07:08:36;101666.41;;;20.82;56.20
62617;BME280;62539;51.190;6.808;2023-05-13T07:11:02;101671.59;;;20.85;56.13
62617;BME280;62539;51.190;6.808;2023-05-13T07:13:27;101667.13;;;20.88;56.05
62617;BME280;62539;51.190;6.808;2023-05-13T07:15:54;101671.50;;;20.89;56.17
62617;BME280;62539;51.190;6.808;2023-05-13T07:18:19;101674.97;;;20.91;56.32
62617;BME280;62539;51.190;6.808;2023-05-13T07:20:45;101665.19;;;20.94;56.11
62617;BME280;62539;51.190;6.808;2023-05-13T07:23:10;101672.19;;;20.95;55.57
62617;BME280;62539;51.190;6.808;2023-05-13T07:25:36;101672.94;;;20.99;56.00
62617;BME280;62539;51.190;6.808;2023-05-13T07:28:01;101666.75;;;21.00;56.28
62617;BME280;62539;51.190;6.808;2023-05-13T07:30:27;101667.56;;;21.02;56.02
62617;BME280;62539;51.190;6.808;2023-05-13T07:32:52;101667.56;;;21.02;56.06
62617;BME280;62539;51.190;6.808;2023-05-13T07:35:17;101676.31;;;21.04;55.64
62617;BME280;62539;51.190;6.808;2023-05-13T07:37:43;101671.00;;;21.06;55.52
62617;BME280;62539;51.190;6.808;2023-05-13T07:40:09;101670.94;;;21.07;55.38
62617;BME280;62539;51.190;6.808;2023-05-13T07:42:35;101670.91;;;21.09;55.29
62617;BME280;62539;51.190;6.808;2023-05-13T07:45:02;101676.13;;;21.10;55.20
62617;BME280;62539;51.190;6.808;2023-05-13T07:47:28;101687.50;;;21.12;55.42
62617;BME280;62539;51.190;6.808;2023-05-13T07:49:55;101676.03;;;21.13;55.31
62617;BME280;62539;51.190;6.808;2023-05-13T07:52:20;101682.13;;;21.15;55.53
62617;BME280;62539;51.190;6.808;2023-05-13T07:54:47;101675.94;;;21.17;55.47
62617;BME280;62539;51.190;6.808;2023-05-13T07:57:12;101681.19;;;21.18;55.29
62617;BME280;62539;51.190;6.808;2023-05-13T07:59:37;101681.13;;;21.20;55.29
62617;BME280;62539;51.190;6.808;2023-05-13T08:02:03;101680.19;;;21.21;55.25
62617;BME280;62539;51.190;6.808;2023-05-13T08:04:28;101681.00;;;21.23;55.32
62617;BME280;62539;51.190;6.808;2023-05-13T08:06:54;101680.09;;;21.24;55.50
62617;BME280;62539;51.190;6.808;2023-05-13T08:09:20;101680.03;;;21.25;55.17
62617;BME280;62539;51.190;6.808;2023-05-13T08:11:45;101678.28;;;21.26;55.34
62617;BME280;62539;51.190;6.808;2023-05-13T08:14:11;101684.38;;;21.28;55.12
62617;BME280;62539;51.190;6.808;2023-05-13T08:16:36;101675.53;;;21.29;55.45
62617;BME280;62539;51.190;6.808;2023-05-13T08:19:02;101672.84;;;21.30;55.41
62617;BME280;62539;51.190;6.808;2023-05-13T08:21:28;101670.16;;;21.32;55.13
62617;BME280;62539;51.190;6.808;2023-05-13T08:23:53;101668.34;;;21.34;55.10
62617;BME280;62539;51.190;6.808;2023-05-13T08:26:19;101667.44;;;21.35;55.25
62617;BME280;62539;51.190;6.808;2023-05-13T08:28:44;101673.53;;;21.37;55.25
62617;BME280;62539;51.190;6.808;2023-05-13T08:31:11;101677.88;;;21.38;55.07
62617;BME280;62539;51.190;6.808;2023-05-13T08:33:37;101669.06;;;21.39;54.82
62617;BME280;62539;51.190;6.808;2023-05-13T08:36:02;101674.28;;;21.41;54.11
62617;BME280;62539;51.190;6.808;2023-05-13T08:38:28;101672.44;;;21.43;54.06
62617;BME280;62539;51.190;6.808;2023-05-13T08:40:53;101684.78;;;21.42;53.57
62617;BME280;62539;51.190;6.808;2023-05-13T08:43:21;101684.72;;;21.44;52.80
62617;BME280;62539;51.190;6.808;2023-05-13T08:45:50;101686.53;;;21.43;52.03
62617;BME280;62539;51.190;6.808;2023-05-13T08:48:18;101685.59;;;21.44;51.14
62617;BME280;62539;51.190;6.808;2023-05-13T08:50:44;101690.00;;;21.44;50.98
62617;BME280;62539;51.190;6.808;2023-05-13T08:53:11;101686.41;;;21.47;50.54
62617;BME280;62539;51.190;6.808;2023-05-13T08:55:40;101688.09;;;21.49;50.00
62617;BME280;62539;51.190;6.808;2023-05-13T08:58:06;101685.41;;;21.51;49.72
62617;BME280;62539;51.190;6.808;2023-05-13T09:00:33;101683.59;;;21.53;49.99
62617;BME280;62539;51.190;6.808;2023-05-13T09:02:59;101679.06;;;21.56;50.05
62617;BME280;62539;51.190;6.808;2023-05-13T09:05:25;101676.38;;;21.58;49.85
62617;BME280;62539;51.190;6.808;2023-05-13T09:07:52;101680.69;;;21.61;49.90
62617;BME280;62539;51.190;6.808;2023-05-13T09:10:19;101680.59;;;21.64;50.63
62617;BME280;62539;51.190;6.808;2023-05-13T09:15:16;101674.38;;;21.66;50.47
62617;BME280;62539;51.190;6.808;2023-05-13T09:17:44;101671.63;;;21.69;51.06
62617;BME280;62539;51.190;6.808;2023-05-13T09:20:17;101676.00;;;21.70;51.25
62617;BME280;62539;51.190;6.808;2023-05-13T09:22:48;101677.63;;;21.75;51.05
62617;BME280;62539;51.190;6.808;2023-05-13T09:25:17;101667.88;;;21.77;50.95
62617;BME280;62539;51.190;6.808;2023-05-13T09:27:50;101673.97;;;21.79;51.48
62617;BME280;62539;51.190;6.808;2023-05-13T09:30:19;101666.84;;;21.81;51.49
62617;BME280;62539;51.190;6.808;2023-05-13T09:35:30;101657.03;;;21.84;51.42
62617;BME280;62539;51.190;6.808;2023-05-13T09:37:57;101657.03;;;21.84;51.54
62617;BME280;62539;51.190;6.808;2023-05-13T09:40:23;101654.34;;;21.86;51.70
62617;BME280;62539;51.190;6.808;2023-05-13T09:42:48;101642.78;;;21.88;51.19
62617;BME280;62539;51.190;6.808;2023-05-13T09:45:16;101644.41;;;21.93;51.13
62617;BME280;62539;51.190;6.808;2023-05-13T09:47:42;101649.59;;;21.96;51.24
62617;BME280;62539;51.190;6.808;2023-05-13T09:50:09;101635.44;;;21.98;51.02
62617;BME280;62539;51.190;6.808;2023-05-13T09:52:37;101630.94;;;22.00;51.21
62617;BME280;62539;51.190;6.808;2023-05-13T09:55:05;101633.53;;;22.02;50.87
62617;BME280;62539;51.190;6.808;2023-05-13T09:57:33;101635.31;;;22.01;50.86
62617;BME280;62539;51.190;6.808;2023-05-13T10:00:03;101638.69;;;22.05;51.29
62617;BME280;62539;51.190;6.808;2023-05-13T10:02:30;101635.03;;;22.09;50.99
62617;BME280;62539;51.190;6.808;2023-05-13T10:04:55;101628.72;;;22.13;51.37
62617;BME280;62539;51.190;6.808;2023-05-13T10:07:23;101628.56;;;22.18;51.08
62617;BME280;62539;51.190;6.808;2023-05-13T10:10:00;101625.75;;;22.23;50.98
62617;BME280;62539;51.190;6.808;2023-05-13T10:12:30;101629.03;;;22.29;50.48
62617;BME280;62539;51.190;6.808;2023-05-13T10:15:00;101621.00;;;22.32;50.76
62617;BME280;62539;51.190;6.808;2023-05-13T10:17:26;101617.31;;;22.37;50.54
62617;BME280;62539;51.190;6.808;2023-05-13T10:19:53;101611.91;;;22.40;49.83
62617;BME280;62539;51.190;6.808;2023-05-13T10:22:29;101611.81;;;22.43;49.02
62617;BME280;62539;51.190;6.808;2023-05-13T10:24:57;101616.13;;;22.45;48.57
62617;BME280;62539;51.190;6.808;2023-05-13T10:27:29;101616.09;;;22.47;47.99
62617;BME280;62539;51.190;6.808;2023-05-13T10:29:59;101605.38;;;22.50;47.93
62617;BME280;62539;51.190;6.808;2023-05-13T10:32:27;101600.78;;;22.55;48.34
62617;BME280;62539;51.190;6.808;2023-05-13T10:35:07;101598.84;;;22.60;47.66
62617;BME280;62539;51.190;6.808;2023-05-13T10:37:54;101595.16;;;22.65;47.68
62617;BME280;62539;51.190;6.808;2023-05-13T10:43:26;101593.91;;;22.73;46.82
62617;BME280;62539;51.190;6.808;2023-05-13T10:46:06;101597.47;;;22.72;46.66
62617;BME280;62539;51.190;6.808;2023-05-13T10:48:39;101589.38;;;22.77;47.01
62617;BME280;62539;51.190;6.808;2023-05-13T10:51:16;101595.38;;;22.81;47.17
62617;BME280;62539;51.190;6.808;2023-05-13T10:53:48;101593.53;;;22.83;47.18
62617;BME280;62539;51.190;6.808;2023-05-13T10:56:23;101582.78;;;22.87;46.87
62617;BME280;62539;51.190;6.808;2023-05-13T11:01:34;101586.00;;;22.96;45.66
62617;BME280;62539;51.190;6.808;2023-05-13T11:04:13;101569.06;;;23.00;45.74
62617;BME280;62539;51.190;6.808;2023-05-13T11:06:41;101578.53;;;23.05;45.49
62617;BME280;62539;51.190;6.808;2023-05-13T11:09:28;101572.25;;;23.08;45.27
62617;BME280;62539;51.190;6.808;2023-05-13T11:11:57;101574.66;;;23.14;45.40
62617;BME280;62539;51.190;6.808;2023-05-13T11:14:25;101576.13;;;23.22;45.30
62617;BME280;62539;51.190;6.808;2023-05-13T11:19:34;101576.56;;;23.33;45.14
62617;BME280;62539;51.190;6.808;2023-05-13T11:24:35;101567.19;;;23.46;44.48
62617;BME280;62539;51.190;6.808;2023-05-13T11:27:16;101563.47;;;23.51;44.72
62617;BME280;62539;51.190;6.808;2023-05-13T11:29:51;101564.00;;;23.59;44.83
62617;BME280;62539;51.190;6.808;2023-05-13T11:37:49;101557.81;;;23.79;44.35
62617;BME280;62539;51.190;6.808;2023-05-13T11:40:41;101570.88;;;23.84;44.23
62617;BME280;62539;51.190;6.808;2023-05-13T11:43:08;101569.59;;;23.92;43.55
62617;BME280;62539;51.190;6.808;2023-05-13T11:45:37;101565.78;;;23.98;43.09
62617;BME280;62539;51.190;6.808;2023-05-13T11:48:20;101577.94;;;24.04;42.94
62617;BME280;62539;51.190;6.808;2023-05-13T11:50:49;101574.00;;;24.13;42.53
62617;BME280;62539;51.190;6.808;2023-05-13T11:53:19;101569.34;;;24.18;42.24
62617;BME280;62539;51.190;6.808;2023-05-13T11:55:46;101573.06;;;24.14;42.72
62617;BME280;62539;51.190;6.808;2023-05-13T11:58:13;101566.41;;;24.24;42.55
62617;BME280;62539;51.190;6.808;2023-05-13T12:00:41;101566.06;;;24.32;42.37
62617;BME280;62539;51.190;6.808;2023-05-13T12:03:10;101570.50;;;24.31;42.13
62617;BME280;62539;51.190;6.808;2023-05-13T12:05:40;101560.47;;;24.38;41.77
62617;BME280;62539;51.190;6.808;2023-05-13T12:08:07;101568.84;;;24.48;42.03
62617;BME280;62539;51.190;6.808;2023-05-13T12:10:34;101562.47;;;24.52;41.79
62617;BME280;62539;51.190;6.808;2023-05-13T12:13:00;101568.19;;;24.43;42.08
62617;BME280;62539;51.190;6.808;2023-05-13T12:15:26;101571.94;;;24.58;41.78
62617;BME280;62539;51.190;6.808;2023-05-13T12:17:52;101572.94;;;24.55;41.67
62617;BME280;62539;51.190;6.808;2023-05-13T12:20:21;101572.44;;;24.47;42.19
62617;BME280;62539;51.190;6.808;2023-05-13T12:28:09;101582.31;;;24.24;43.01
62617;BME280;62539;51.190;6.808;2023-05-13T12:30:38;101577.22;;;24.39;42.89
62617;BME280;62539;51.190;6.808;2023-05-13T12:33:11;101578.09;;;24.58;42.44
62617;BME280;62539;51.190;6.808;2023-05-13T12:35:49;101587.84;;;24.77;42.16
62617;BME280;62539;51.190;6.808;2023-05-13T12:38:18;101584.44;;;24.92;41.67
62617;BME280;62539;51.190;6.808;2023-05-13T12:40:46;101591.66;;;25.08;41.52
62617;BME280;62539;51.190;6.808;2023-05-13T12:43:13;101591.06;;;25.20;41.24
62617;BME280;62539;51.190;6.808;2023-05-13T12:45:42;101593.97;;;25.33;40.84
62617;BME280;62539;51.190;6.808;2023-05-13T12:48:09;101593.41;;;25.44;40.34
62617;BME280;62539;51.190;6.808;2023-05-13T12:50:35;101604.38;;;25.56;40.43
62617;BME280;62539;51.190;6.808;2023-05-13T12:53:01;101599.22;;;25.52;40.48
62617;BME280;62539;51.190;6.808;2023-05-13T12:55:26;101606.53;;;25.30;41.13
62617;BME280;62539;51.190;6.808;2023-05-13T12:57:59;101603.84;;;25.12;41.35
62617;BME280;62539;51.190;6.808;2023-05-13T13:00:26;101597.69;;;25.12;41.45
62617;BME280;62539;51.190;6.808;2023-05-13T13:02:52;101607.88;;;25.02;41.96
62617;BME280;62539;51.190;6.808;2023-05-13T13:05:22;101602.84;;;25.15;41.41
62617;BME280;62539;51.190;6.808;2023-05-13T13:07:49;101598.19;;;25.37;41.06
62617;BME280;62539;51.190;6.808;2023-05-13T13:10:15;101599.06;;;25.56;40.76
62617;BME280;62539;51.190;6.808;2023-05-13T13:12:40;101590.22;;;25.73;40.29
62617;BME280;62539;51.190;6.808;2023-05-13T13:15:07;101600.59;;;25.77;40.01
62617;BME280;62539;51.190;6.808;2023-05-13T13:17:34;101596.41;;;25.56;40.12
62617;BME280;62539;51.190;6.808;2023-05-13T13:20:00;101606.22;;;25.36;40.75